Ana Sayfa
METAR-TAF:

METAR-TAF

Havaalanları :

Çengdu Shuangliu Uluslararası Havalimanı

Çengdu, Çin

Enlem: 30-40N, Boylam: 104-01E, yükseklik: 508 m

Güncel hava durumu gözlemi

Rapor saat 14:00 UTC de 36 dakika önce yapıldı.
Sakin rüzgar
Sıcaklık 27°C
Nem 84%
Basınç 1003 hPa
Görüş mesafesi 10 km veya daha fazla
1500 m altında bulut yok ve kümülonimbus yok

METAR: ZUUU 221400Z 00000MPS CAVOK 27/24 Q1003 NOSIG

Saat: 22:36 (14:36 UTC)

Tahmin

Rapor saat 08:33 UTC de 6 saat ve 3 dakika önce yapıldı.
Ayın 22'si saat 12 UTC'den ayın 23'si saat 12 UTC'ye kadar geçerli Tahmin
Rüzgar güney/güneybatıdan 6 kt
Görüş mesafesi: 5000 m
3000 ft yükseklikte az bulutlu, Kümülonimbus.
3000 ft yükseklikte parçalı bulutlu
Pus
Geçici
ayın 22'si saat 15 UTC'den ayın 22'si saat 17 UTC'ye kadar
gök gürültülü fırtına, hafif yağmur

TAF: ZUUU 220833Z 2212/2312 20003MPS 5000 BR FEW030CB SCT030 TX35/2307Z TN25/2223Z TEMPO 2215/2217 -TSRA

4.000'den fazla havaalanı için hava durumu gözlemleri ve tahminleri (METAR ve TAF raporları).

Kullanılabilir istasyonlar harita üzerinde sarı ve kırmızı noktalarla gösterilir.

İstasyonun adını görmek için fareyi noktanın üzerinde gezdirin.

Sonrasında hava gözlem ve tahminlerini görmek için tıklayın.

Haritayı değiştirmek için: yaklaştırmak için siyah artı işaretli yeşil düğmeye ve uzaklaştırmak için de eksi işaretli düğmeye hızla tıklayın; bitişik haritalar için yeşil okları kullanın.


METAR-TAF: